<?xml version="1.0" encoding="UTF-8" standalone="no" ?>
<gpx xmlns="http://www.topografix.com/GPX/1/1" xmlns:xsi="http://www.w3.org/2001/XMLSchema-instance" xsi:schemaLocation="http://www.topografix.com/GPX/1/1 http://www.topografix.com/GPX/1/1/gpx.xsd" version="1.1" creator="VisuGPX - https://www.visugpx.com">
  <metadata>
    <name>boucles beaumont</name>
    <desc><![CDATA[boucles beaumont du périgord]]></desc>
  </metadata>
  <trk>
    <name><![CDATA[BBmt11]]></name>
    <trkseg>
      <trkpt lat="44.69438" lon="0.75103">
        <ele>137</ele>
        <time>2008-12-03T13:43:07Z</time>
      </trkpt>
      <trkpt lat="44.6942" lon="0.7511">
        <ele>135</ele>
        <time>2008-12-03T13:43:14Z</time>
      </trkpt>
      <trkpt lat="44.694" lon="0.75115">
        <ele>131</ele>
        <time>2008-12-03T13:43:21Z</time>
      </trkpt>
      <trkpt lat="44.69378" lon="0.7512">
        <ele>130</ele>
        <time>2008-12-03T13:43:25Z</time>
      </trkpt>
      <trkpt lat="44.69358" lon="0.75125">
        <ele>130</ele>
        <time>2008-12-03T13:43:38Z</time>
      </trkpt>
      <trkpt lat="44.69338" lon="0.75128">
        <ele>131</ele>
        <time>2008-12-03T13:43:44Z</time>
      </trkpt>
      <trkpt lat="44.69323" lon="0.75105">
        <ele>137</ele>
        <time>2008-12-03T13:43:59Z</time>
      </trkpt>
      <trkpt lat="44.69315" lon="0.75078">
        <ele>138</ele>
        <time>2008-12-03T13:44:03Z</time>
      </trkpt>
      <trkpt lat="44.69308" lon="0.75045">
        <ele>136</ele>
        <time>2008-12-03T13:44:06Z</time>
      </trkpt>
      <trkpt lat="44.69298" lon="0.7501">
        <ele>135</ele>
        <time>2008-12-03T13:44:09Z</time>
      </trkpt>
      <trkpt lat="44.69288" lon="0.74978">
        <ele>132</ele>
        <time>2008-12-03T13:44:12Z</time>
      </trkpt>
      <trkpt lat="44.69283" lon="0.74953">
        <ele>129</ele>
        <time>2008-12-03T13:44:14Z</time>
      </trkpt>
      <trkpt lat="44.69275" lon="0.7492">
        <ele>127</ele>
        <time>2008-12-03T13:44:17Z</time>
      </trkpt>
      <trkpt lat="44.69273" lon="0.74893">
        <ele>125</ele>
        <time>2008-12-03T13:44:19Z</time>
      </trkpt>
      <trkpt lat="44.69265" lon="0.7485">
        <ele>122</ele>
        <time>2008-12-03T13:44:22Z</time>
      </trkpt>
      <trkpt lat="44.69263" lon="0.7482">
        <ele>119</ele>
        <time>2008-12-03T13:44:24Z</time>
      </trkpt>
      <trkpt lat="44.69258" lon="0.74793">
        <ele>117</ele>
        <time>2008-12-03T13:44:26Z</time>
      </trkpt>
      <trkpt lat="44.69253" lon="0.74745">
        <ele>116</ele>
        <time>2008-12-03T13:44:29Z</time>
      </trkpt>
      <trkpt lat="44.69248" lon="0.74715">
        <ele>114</ele>
        <time>2008-12-03T13:44:31Z</time>
      </trkpt>
      <trkpt lat="44.69243" lon="0.74683">
        <ele>115</ele>
        <time>2008-12-03T13:44:33Z</time>
      </trkpt>
      <trkpt lat="44.69228" lon="0.74633">
        <ele>115</ele>
        <time>2008-12-03T13:44:36Z</time>
      </trkpt>
      <trkpt lat="44.69213" lon="0.74585">
        <ele>114</ele>
        <time>2008-12-03T13:44:39Z</time>
      </trkpt>
      <trkpt lat="44.69203" lon="0.74553">
        <ele>112</ele>
        <time>2008-12-03T13:44:41Z</time>
      </trkpt>
      <trkpt lat="44.69188" lon="0.74523">
        <ele>110</ele>
        <time>2008-12-03T13:44:43Z</time>
      </trkpt>
      <trkpt lat="44.69173" lon="0.74495">
        <ele>109</ele>
        <time>2008-12-03T13:44:45Z</time>
      </trkpt>
      <trkpt lat="44.69155" lon="0.74465">
        <ele>108</ele>
        <time>2008-12-03T13:44:48Z</time>
      </trkpt>
      <trkpt lat="44.6914" lon="0.74443">
        <ele>106</ele>
        <time>2008-12-03T13:45:02Z</time>
      </trkpt>
      <trkpt lat="44.69125" lon="0.74418">
        <ele>105</ele>
        <time>2008-12-03T13:45:05Z</time>
      </trkpt>
      <trkpt lat="44.69113" lon="0.74393">
        <ele>105</ele>
        <time>2008-12-03T13:45:07Z</time>
      </trkpt>
      <trkpt lat="44.69088" lon="0.7435">
        <ele>106</ele>
        <time>2008-12-03T13:45:10Z</time>
      </trkpt>
      <trkpt lat="44.69063" lon="0.74303">
        <ele>106</ele>
        <time>2008-12-03T13:45:13Z</time>
      </trkpt>
      <trkpt lat="44.69048" lon="0.74275">
        <ele>106</ele>
        <time>2008-12-03T13:45:15Z</time>
      </trkpt>
      <trkpt lat="44.69035" lon="0.7425">
        <ele>106</ele>
        <time>2008-12-03T13:45:17Z</time>
      </trkpt>
      <trkpt lat="44.69028" lon="0.74225">
        <ele>105</ele>
        <time>2008-12-03T13:45:28Z</time>
      </trkpt>
      <trkpt lat="44.69023" lon="0.7419">
        <ele>107</ele>
        <time>2008-12-03T13:45:32Z</time>
      </trkpt>
      <trkpt lat="44.69023" lon="0.7416">
        <ele>108</ele>
        <time>2008-12-03T13:45:34Z</time>
      </trkpt>
      <trkpt lat="44.69025" lon="0.74125">
        <ele>111</ele>
        <time>2008-12-03T13:45:36Z</time>
      </trkpt>
      <trkpt lat="44.69035" lon="0.74068">
        <ele>112</ele>
        <time>2008-12-03T13:45:39Z</time>
      </trkpt>
      <trkpt lat="44.69043" lon="0.7403">
        <ele>114</ele>
        <time>2008-12-03T13:45:41Z</time>
      </trkpt>
      <trkpt lat="44.6905" lon="0.7399">
        <ele>115</ele>
        <time>2008-12-03T13:45:43Z</time>
      </trkpt>
      <trkpt lat="44.69058" lon="0.73953">
        <ele>117</ele>
        <time>2008-12-03T13:45:45Z</time>
      </trkpt>
      <trkpt lat="44.69068" lon="0.739">
        <ele>119</ele>
        <time>2008-12-03T13:45:48Z</time>
      </trkpt>
      <trkpt lat="44.69073" lon="0.73868">
        <ele>121</ele>
        <time>2008-12-03T13:45:50Z</time>
      </trkpt>
      <trkpt lat="44.6908" lon="0.7384">
        <ele>121</ele>
        <time>2008-12-03T13:45:52Z</time>
      </trkpt>
      <trkpt lat="44.6909" lon="0.73813">
        <ele>122</ele>
        <time>2008-12-03T13:45:54Z</time>
      </trkpt>
      <trkpt lat="44.69108" lon="0.73775">
        <ele>122</ele>
        <time>2008-12-03T13:45:56Z</time>
      </trkpt>
      <trkpt lat="44.69125" lon="0.73748">
        <ele>122</ele>
        <time>2008-12-03T13:45:59Z</time>
      </trkpt>
      <trkpt lat="44.69138" lon="0.7372">
        <ele>123</ele>
        <time>2008-12-03T13:46:01Z</time>
      </trkpt>
      <trkpt lat="44.6915" lon="0.73695">
        <ele>124</ele>
        <time>2008-12-03T13:46:03Z</time>
      </trkpt>
      <trkpt lat="44.69155" lon="0.73668">
        <ele>123</ele>
        <time>2008-12-03T13:46:22Z</time>
      </trkpt>
      <trkpt lat="44.6916" lon="0.73633">
        <ele>123</ele>
        <time>2008-12-03T13:46:25Z</time>
      </trkpt>
      <trkpt lat="44.69165" lon="0.73603">
        <ele>123</ele>
        <time>2008-12-03T13:46:27Z</time>
      </trkpt>
      <trkpt lat="44.69168" lon="0.73568">
        <ele>125</ele>
        <time>2008-12-03T13:46:29Z</time>
      </trkpt>
      <trkpt lat="44.69175" lon="0.7353">
        <ele>127</ele>
        <time>2008-12-03T13:46:31Z</time>
      </trkpt>
      <trkpt lat="44.69183" lon="0.73493">
        <ele>128</ele>
        <time>2008-12-03T13:46:33Z</time>
      </trkpt>
      <trkpt lat="44.69195" lon="0.73443">
        <ele>130</ele>
        <time>2008-12-03T13:46:36Z</time>
      </trkpt>
      <trkpt lat="44.69203" lon="0.73415">
        <ele>132</ele>
        <time>2008-12-03T13:46:38Z</time>
      </trkpt>
      <trkpt lat="44.69213" lon="0.7338">
        <ele>133</ele>
        <time>2008-12-03T13:46:41Z</time>
      </trkpt>
      <trkpt lat="44.69223" lon="0.73348">
        <ele>133</ele>
        <time>2008-12-03T13:46:44Z</time>
      </trkpt>
      <trkpt lat="44.69235" lon="0.73315">
        <ele>133</ele>
        <time>2008-12-03T13:46:47Z</time>
      </trkpt>
      <trkpt lat="44.69245" lon="0.73283">
        <ele>132</ele>
        <time>2008-12-03T13:46:50Z</time>
      </trkpt>
      <trkpt lat="44.6924" lon="0.73258">
        <ele>131</ele>
        <time>2008-12-03T13:47:05Z</time>
      </trkpt>
      <trkpt lat="44.69223" lon="0.73265">
        <ele>130</ele>
        <time>2008-12-03T13:47:08Z</time>
      </trkpt>
      <trkpt lat="44.69203" lon="0.73275">
        <ele>128</ele>
        <time>2008-12-03T13:47:11Z</time>
      </trkpt>
      <trkpt lat="44.69183" lon="0.73288">
        <ele>127</ele>
        <time>2008-12-03T13:47:14Z</time>
      </trkpt>
      <trkpt lat="44.69165" lon="0.73298">
        <ele>124</ele>
        <time>2008-12-03T13:47:17Z</time>
      </trkpt>
      <trkpt lat="44.69145" lon="0.73308">
        <ele>120</ele>
        <time>2008-12-03T13:47:21Z</time>
      </trkpt>
      <trkpt lat="44.69145" lon="0.73335">
        <ele>123</ele>
        <time>2008-12-03T13:48:48Z</time>
      </trkpt>
      <trkpt lat="44.69153" lon="0.73308">
        <ele>117</ele>
        <time>2008-12-03T13:55:44Z</time>
      </trkpt>
      <trkpt lat="44.6917" lon="0.73298">
        <ele>123</ele>
        <time>2008-12-03T13:55:48Z</time>
      </trkpt>
      <trkpt lat="44.6919" lon="0.7329">
        <ele>127</ele>
        <time>2008-12-03T13:55:51Z</time>
      </trkpt>
      <trkpt lat="44.69208" lon="0.7328">
        <ele>129</ele>
        <time>2008-12-03T13:55:54Z</time>
      </trkpt>
      <trkpt lat="44.69228" lon="0.7327">
        <ele>129</ele>
        <time>2008-12-03T13:55:57Z</time>
      </trkpt>
      <trkpt lat="44.69248" lon="0.73263">
        <ele>129</ele>
        <time>2008-12-03T13:56:00Z</time>
      </trkpt>
      <trkpt lat="44.69263" lon="0.7324">
        <ele>126</ele>
        <time>2008-12-03T13:56:08Z</time>
      </trkpt>
      <trkpt lat="44.69273" lon="0.73208">
        <ele>127</ele>
        <time>2008-12-03T13:56:11Z</time>
      </trkpt>
      <trkpt lat="44.6928" lon="0.73178">
        <ele>128</ele>
        <time>2008-12-03T13:56:13Z</time>
      </trkpt>
      <trkpt lat="44.69287" lon="0.73142">
        <ele>131</ele>
        <time>2009-06-18T16:43:36Z</time>
      </trkpt>
      <trkpt lat="44.69291" lon="0.73132">
        <ele>131</ele>
        <time>2009-06-18T16:43:36Z</time>
      </trkpt>
      <trkpt lat="44.69311" lon="0.73145">
        <ele>131</ele>
        <time>2009-06-18T16:43:36Z</time>
      </trkpt>
      <trkpt lat="44.69328" lon="0.7316">
        <ele>131</ele>
        <time>2009-06-18T16:43:36Z</time>
      </trkpt>
      <trkpt lat="44.69385" lon="0.73197">
        <ele>133</ele>
        <time>2009-06-18T16:43:36Z</time>
      </trkpt>
      <trkpt lat="44.69408" lon="0.73206">
        <ele>135</ele>
        <time>2008-12-03T13:56:16Z</time>
      </trkpt>
    </trkseg>
  </trk>
</gpx>